Time;durP1;ratioP1;P1;durP2;ratioP2;P2;SDS_P1;SDS_P2;PMS_P1;PMS_P2;Temp;Humidity;BMP_temperature;BMP_pressure;BME280_temperature;BME280_humidity;BME280_pressure;Samples;Min_cycle;Max_cycle;Signal;HPM_P1;HPM_P2
2021/12/14 12:22:15;;;;;;;70.43;30.55;;;8.90;99.90;;;;;;5091645;28;20477;-90
2021/12/14 12:24:45;;;;;;;77.53;31.58;;;8.80;99.90;;;;;;5039140;28;20053;-94
2021/12/14 12:27:31;;;;;;;81.07;33.80;;;8.90;99.90;;;;;;5059348;28;20105;-95
2021/12/14 12:33:33;;;;;;;91.10;34.97;;;8.20;99.90;;;;;;5054209;28;20122;-94
2021/12/14 12:36:14;;;;;;;93.60;34.47;;;8.80;99.90;;;;;;5039899;28;20045;-94
2021/12/14 12:38:44;;;;;;;101.72;36.05;;;8.80;99.90;;;;;;5057958;28;20049;-92
2021/12/14 12:41:13;;;;;;;99.13;35.47;;;8.90;99.90;;;;;;5056823;28;20091;-90
2021/12/14 12:43:51;;;;;;;100.25;35.85;;;8.80;99.90;;;;;;5056676;28;20048;-92
2021/12/14 12:46:30;;;;;;;114.57;37.63;;;9.80;99.90;;;;;;5038469;28;20045;-92
2021/12/14 12:49:12;;;;;;;98.00;35.78;;;8.80;99.90;;;;;;5056375;28;20170;-94
2021/12/14 12:52:07;;;;;;;101.82;38.40;;;8.90;99.90;;;;;;5057127;28;20061;-95
2021/12/14 12:54:51;;;;;;;98.38;34.75;;;9.00;99.90;;;;;;5034683;28;20053;-93
2021/12/14 12:57:28;;;;;;;80.47;33.80;;;9.10;99.90;;;;;;5052520;28;20057;-92
2021/12/14 12:59:58;;;;;;;101.55;34.67;;;9.10;99.90;;;;;;5052131;28;20380;-94
2021/12/14 13:02:36;;;;;;;89.60;34.08;;;9.10;99.90;;;;;;5056182;28;20045;-94
2021/12/14 13:05:33;;;;;;;117.15;37.67;;;9.10;99.90;;;;;;5042341;28;20107;-91
2021/12/14 13:08:02;;;;;;;;;;;9.20;99.90;;;;;;5052875;28;20170;-91
2021/12/14 13:10:34;;;;;;;103.32;36.85;;;9.10;99.90;;;;;;5056140;28;19921;-92
2021/12/14 13:13:07;;;;;;;94.90;35.55;;;9.10;99.90;;;;;;5044406;28;20041;-92
2021/12/14 13:15:58;;;;;;;93.70;34.22;;;9.10;99.90;;;;;;5044982;28;20068;-93
2021/12/14 13:18:30;;;;;;;91.43;34.85;;;9.20;99.90;;;;;;5064418;28;20073;-94
2021/12/14 13:24:03;;;;;;;101.13;34.33;;;9.20;99.90;;;;;;5523140;22;20136;-95
2021/12/14 13:26:35;;;;;;;85.82;34.25;;;9.20;99.90;;;;;;5064190;28;20045;-94
2021/12/14 13:29:16;;;;;;;86.80;32.17;;;9.30;99.90;;;;;;5070560;28;20050;-94
2021/12/14 13:31:51;;;;;;;88.53;32.15;;;9.20;99.90;;;;;;5070421;28;20037;-94
2021/12/14 14:15:19;;;;;;;80.82;29.05;;;9.30;99.90;;;;;;4931071;29;20055;-94
2021/12/14 14:17:58;;;;;;;71.38;26.33;;;9.80;99.90;;;;;;4932340;29;20058;-94
2021/12/14 14:20:48;;;;;;;73.40;29.83;;;9.30;99.90;;;;;;4929082;29;20084;-94
2021/12/14 14:23:21;;;;;;;84.03;28.83;;;9.50;99.90;;;;;;4912776;29;20087;-94
2021/12/14 14:26:09;;;;;;;80.68;29.27;;;9.10;99.90;;;;;;4928185;29;20278;-94
2021/12/14 14:28:50;;;;;;;77.10;27.77;;;8.40;99.90;;;;;;4916831;29;20048;-94
2021/12/14 14:31:40;;;;;;;103.55;33.03;;;9.10;99.90;;;;;;4921951;29;20055;-94
2021/12/14 14:53:33;;;;;;;96.70;32.05;;;9.10;99.90;;;;;;4940584;29;20060;-93
2021/12/14 14:56:01;;;;;;;96.63;32.30;;;9.30;99.90;;;;;;4925863;29;20392;-91
2021/12/14 14:58:29;;;;;;;107.80;33.78;;;10.10;99.90;;;;;;4926293;29;20056;-93
2021/12/14 15:01:01;;;;;;;112.18;34.85;;;9.30;99.90;;;;;;4926243;29;20047;-93
2021/12/14 15:03:48;;;;;;;109.32;33.38;;;9.10;99.90;;;;;;4925447;29;20097;-93
2021/12/14 15:06:20;;;;;;;95.75;29.17;;;9.00;99.90;;;;;;4926104;29;20066;-93
2021/12/14 15:09:03;;;;;;;97.30;31.17;;;10.20;99.90;;;;;;4942451;29;20056;-93
2021/12/14 15:11:51;;;;;;;114.63;34.83;;;9.10;99.90;;;;;;4923238;29;20529;-92
2021/12/14 15:14:34;;;;;;;106.05;30.95;;;9.10;99.90;;;;;;4937481;29;20071;-94
2021/12/14 15:17:19;;;;;;;112.50;31.40;;;9.80;99.90;;;;;;4922800;29;20047;-93
2021/12/14 15:19:51;;;;;;;98.57;30.73;;;9.10;99.90;;;;;;4923848;29;20137;-94
2021/12/14 15:22:31;;;;;;;98.47;31.30;;;9.80;99.90;;;;;;4924068;29;20059;-94
2021/12/14 15:25:16;;;;;;;87.35;29.30;;;9.00;99.90;;;;;;4920655;29;20134;-93
2021/12/14 15:27:59;;;;;;;79.28;27.85;;;9.00;99.90;;;;;;4921610;29;20051;-92
2021/12/14 15:30:43;;;;;;;83.28;28.45;;;9.00;99.90;;;;;;4939030;29;20084;-94
2021/12/14 15:33:25;;;;;;;69.97;27.88;;;9.00;99.90;;;;;;4924541;29;20084;-93
2021/12/14 15:36:12;;;;;;;63.72;25.17;;;9.00;99.90;;;;;;4925148;29;20123;-93
2021/12/14 15:38:48;;;;;;;70.38;25.30;;;9.10;99.90;;;;;;4923236;29;20057;-93
2021/12/14 15:41:36;;;;;;;59.58;23.45;;;9.10;99.90;;;;;;4921152;29;20047;-94
2021/12/14 15:44:17;;;;;;;68.38;26.77;;;9.10;99.90;;;;;;4932537;29;20617;-93
2021/12/14 15:46:47;;;;;;;78.30;27.40;;;9.10;99.90;;;;;;4916984;29;20051;-92
2021/12/14 15:49:17;;;;;;;68.78;27.08;;;9.10;99.90;;;;;;4932117;29;20059;-92
2021/12/14 15:51:56;;;;;;;66.70;25.60;;;9.80;99.90;;;;;;4932512;29;20439;-93
2021/12/14 15:54:37;;;;;;;71.35;26.10;;;9.00;99.90;;;;;;4916785;29;20082;-92
2021/12/14 15:57:12;;;;;;;72.38;25.95;;;9.10;99.90;;;;;;4931927;29;20305;-92
2021/12/14 15:59:41;;;;;;;64.95;25.45;;;9.10;99.90;;;;;;4931176;29;20391;-93
2021/12/14 16:02:20;;;;;;;56.95;23.15;;;9.10;99.90;;;;;;4915671;29;20054;-93
2021/12/14 16:04:53;;;;;;;63.17;23.42;;;9.10;99.90;;;;;;4916449;29;20055;-93
2021/12/14 16:07:26;;;;;;;77.18;25.35;;;10.20;99.90;;;;;;4932206;29;20059;-93
2021/12/14 16:10:04;;;;;;;60.83;24.55;;;9.10;99.90;;;;;;4931742;29;20048;-93
2021/12/14 16:15:09;;;;;;;69.65;25.77;;;9.10;99.90;;;;;;4931322;29;20548;-93
2021/12/14 16:18:00;;;;;;;68.07;25.25;;;9.10;99.90;;;;;;4930852;29;20051;-92
2021/12/14 16:20:36;;;;;;;61.50;25.40;;;9.10;99.90;;;;;;4932208;29;20047;-93
2021/12/14 16:23:09;;;;;;;68.70;30.83;;;9.10;99.90;;;;;;4932066;29;20045;-93
2021/12/14 16:25:48;;;;;;;62.67;23.85;;;9.30;99.90;;;;;;4932371;29;20700;-93
2021/12/14 16:28:28;;;;;;;59.65;25.73;;;9.10;99.90;;;;;;4916459;29;20059;-93
2021/12/14 16:31:03;;;;;;;57.75;23.63;;;9.20;99.90;;;;;;4933165;29;20067;-93
2021/12/14 16:33:41;;;;;;;62.40;24.83;;;9.10;99.90;;;;;;4934400;29;20051;-93
2021/12/14 16:36:20;;;;;;;55.70;23.25;;;9.20;99.90;;;;;;4922315;29;20035;-93
2021/12/14 16:38:48;;;;;;;67.07;25.85;;;8.80;99.90;;;;;;4926185;29;20796;-93
2021/12/14 16:41:37;;;;;;;61.95;24.83;;;8.70;99.90;;;;;;4933386;29;20087;-92
2021/12/14 16:44:21;;;;;;;56.17;22.83;;;9.00;99.90;;;;;;4917516;29;20056;-92
2021/12/14 16:46:59;;;;;;;57.42;24.35;;;9.10;99.90;;;;;;4917794;29;20184;-93
2021/12/14 16:49:29;;;;;;;68.45;25.42;;;9.20;99.90;;;;;;4933126;29;20051;-93
2021/12/14 16:52:00;;;;;;;63.38;24.13;;;9.10;99.90;;;;;;4932070;29;20063;-93
2021/12/14 16:54:27;;;;;;;64.00;23.80;;;9.20;99.90;;;;;;4932588;29;20146;-91
2021/12/14 16:56:57;;;;;;;66.53;25.35;;;9.30;99.90;;;;;;4932314;29;20812;-92
2021/12/14 16:59:27;;;;;;;65.70;26.00;;;9.10;99.90;;;;;;4932432;29;20498;-93
2021/12/14 17:02:01;;;;;;;63.67;24.00;;;9.50;99.90;;;;;;4932089;29;20040;-92
2021/12/14 17:04:30;;;;;;;69.78;25.50;;;9.20;99.90;;;;;;4916665;29;20121;-93
2021/12/14 17:07:00;;;;;;;67.15;26.38;;;10.40;99.90;;;;;;4917765;29;20056;-93
2021/12/14 17:09:26;;;;;;;63.97;26.23;;;9.10;99.90;;;;;;4919962;29;20467;-92
2021/12/14 17:11:56;;;;;;;72.82;30.10;;;9.60;99.90;;;;;;4936470;29;20090;-93
2021/12/14 17:14:26;;;;;;;70.38;27.40;;;9.10;99.90;;;;;;4936550;29;20051;-93
2021/12/14 17:17:04;;;;;;;74.18;28.05;;;9.20;99.90;;;;;;4920827;29;20056;-93
2021/12/14 17:19:32;;;;;;;67.43;25.30;;;9.20;99.90;;;;;;4921324;29;20920;-93
2021/12/14 17:22:07;;;;;;;66.47;27.17;;;9.20;99.90;;;;;;4920833;29;20058;-92
2021/12/14 17:24:37;;;;;;;65.32;25.98;;;9.70;99.90;;;;;;4922524;29;20134;-93
2021/12/14 17:27:13;;;;;;;71.50;28.45;;;9.10;99.90;;;;;;4921325;29;20052;-93
2021/12/14 17:29:43;;;;;;;73.40;28.75;;;9.20;99.90;;;;;;4923826;29;20055;-92
2021/12/14 17:32:16;;;;;;;77.10;27.88;;;9.20;99.90;;;;;;4923522;29;20048;-92
2021/12/14 17:34:46;;;;;;;71.35;29.85;;;9.20;99.90;;;;;;4920616;29;20047;-92
2021/12/14 17:37:22;;;;;;;72.22;27.20;;;9.20;99.90;;;;;;4920956;29;20047;-93
2021/12/14 17:40:00;;;;;;;75.18;27.80;;;9.20;99.90;;;;;;4922639;29;20048;-93
2021/12/14 17:42:31;;;;;;;75.22;28.20;;;9.20;99.90;;;;;;4919882;29;20052;-92
2021/12/14 17:45:03;;;;;;;87.45;30.58;;;10.30;99.90;;;;;;4918612;29;20083;-92
2021/12/14 17:47:41;;;;;;;84.13;29.13;;;9.00;99.90;;;;;;4918409;29;20066;-92
2021/12/14 17:50:50;;;;;;;80.80;29.75;;;9.20;99.90;;;;;;4918186;29;20059;-92
2021/12/14 17:53:19;;;;;;;86.25;30.27;;;9.30;99.90;;;;;;4906428;29;20066;-92
2021/12/14 17:55:54;;;;;;;103.88;35.00;;;9.20;99.90;;;;;;4934003;29;20059;-93
2021/12/14 17:58:43;;;;;;;90.55;30.08;;;9.60;99.90;;;;;;4918018;29;20043;-92
2021/12/14 18:01:19;;;;;;;101.00;33.00;;;9.30;99.90;;;;;;4933712;29;20051;-92
2021/12/14 18:03:56;;;;;;;115.63;36.13;;;9.30;99.90;;;;;;4932726;29;20066;-93
2021/12/14 18:06:29;;;;;;;101.32;33.55;;;9.40;99.90;;;;;;4917496;29;20494;-92
2021/12/14 18:09:04;;;;;;;110.45;33.47;;;9.40;99.90;;;;;;4916834;29;20506;-93
2021/12/14 18:11:41;;;;;;;107.68;33.85;;;9.40;99.90;;;;;;4917476;29;20067;-92
2021/12/14 18:14:16;;;;;;;115.95;35.58;;;9.40;99.90;;;;;;4916366;29;20051;-92
2021/12/14 18:16:55;;;;;;;126.43;35.78;;;9.40;99.90;;;;;;4932851;29;20086;-92
2021/12/14 18:19:28;;;;;;;140.63;39.85;;;9.40;99.90;;;;;;4902773;29;20047;-93
2021/12/14 18:22:06;;;;;;;144.60;38.22;;;9.40;99.90;;;;;;4932967;29;20036;-93
2021/12/14 18:24:42;;;;;;;139.45;36.72;;;9.40;99.90;;;;;;4932517;29;20052;-92
2021/12/14 18:27:12;;;;;;;130.00;34.15;;;9.40;99.90;;;;;;4932339;29;20051;-93
2021/12/14 18:30:03;;;;;;;147.35;36.45;;;9.40;99.90;;;;;;4932546;29;20052;-92
2021/12/14 18:32:31;;;;;;;136.50;35.05;;;9.40;99.90;;;;;;4916623;29;20122;-91
2021/12/14 18:35:10;;;;;;;130.35;34.10;;;9.40;99.90;;;;;;4916529;29;20710;-91
2021/12/14 18:37:41;;;;;;;150.70;35.80;;;9.40;99.90;;;;;;4916730;29;20727;-92
2021/12/14 18:40:34;;;;;;;147.63;35.83;;;9.40;99.90;;;;;;4932229;29;20060;-91
2021/12/14 18:43:02;;;;;;;162.30;35.50;;;9.40;99.90;;;;;;4916771;29;20134;-91
2021/12/14 18:45:28;;;;;;;144.35;35.72;;;9.40;99.90;;;;;;4917025;29;20499;-91
2021/12/14 18:50:34;;;;;;;155.98;38.00;;;9.40;99.90;;;;;;4936274;29;20511;-92
2021/12/14 18:53:09;;;;;;;144.98;34.70;;;9.50;99.90;;;;;;4921612;29;20055;-91
2021/12/14 18:55:47;;;;;;;162.93;38.22;;;9.50;99.90;;;;;;4936274;29;20087;-92
2021/12/14 18:58:38;;;;;;;162.77;36.83;;;9.50;99.90;;;;;;4933154;29;20122;-91
2021/12/14 19:01:10;;;;;;;179.68;39.03;;;9.50;99.90;;;;;;4925891;29;20106;-92
2021/12/14 19:04:02;;;;;;;177.38;39.00;;;9.50;99.90;;;;;;4934290;29;20470;-92
2021/12/14 19:06:41;;;;;;;158.35;36.35;;;9.40;99.90;;;;;;4922295;29;20043;-91
2021/12/14 19:09:38;;;;;;;166.75;36.28;;;9.50;99.90;;;;;;4923086;29;20064;-91
2021/12/14 19:12:35;;;;;;;169.57;34.33;;;9.80;99.90;;;;;;4923682;29;20091;-91
2021/12/14 19:15:59;;;;;;;179.40;37.00;;;10.20;99.90;;;;;;4923022;29;20490;-92
2021/12/14 19:18:29;;;;;;;189.48;39.13;;;9.50;99.90;;;;;;4921766;29;20056;-91
2021/12/14 19:21:04;;;;;;;175.52;39.13;;;9.50;99.90;;;;;;4923595;29;20549;-91
2021/12/14 19:23:51;;;;;;;189.07;39.30;;;9.50;99.90;;;;;;4940299;29;20047;-91
2021/12/14 19:29:43;;;;;;;192.70;39.00;;;9.50;99.90;;;;;;4928227;29;19926;-91
2021/12/14 19:32:58;;;;;;;;;;;;;;;;;;;;;
2021/12/14 19:39:43;;;;;;;157.07;34.80;;;9.50;99.90;;;;;;4939686;29;20047;-92
2021/12/14 19:42:26;;;;;;;150.27;39.85;;;9.20;99.90;;;;;;4922410;29;20062;-90
2021/12/14 19:45:10;;;;;;;165.55;36.92;;;9.50;99.90;;;;;;4920463;29;20670;-91
2021/12/14 19:48:24;;;;;;;176.98;37.78;;;10.10;99.90;;;;;;4921410;29;20083;-92
2021/12/14 19:51:00;;;;;;;175.95;39.33;;;9.10;99.90;;;;;;4920517;29;20172;-92
2021/12/14 19:53:31;;;;;;;167.93;40.72;;;9.20;99.90;;;;;;4919195;29;20115;-92
2021/12/14 19:55:58;;;;;;;170.82;37.22;;;9.50;99.90;;;;;;4918041;29;20051;-91
2021/12/14 19:58:39;;;;;;;149.50;38.85;;;9.60;99.90;;;;;;4919406;29;20775;-93
2021/12/14 20:01:23;;;;;;;156.32;37.42;;;9.40;99.90;;;;;;4920791;29;20044;-90
2021/12/14 20:04:06;;;;;;;;;;;;;;;;;;;;;
2021/12/14 20:06:59;;;;;;;175.90;40.50;;;9.60;99.90;;;;;;4936966;29;20150;-92
2021/12/14 20:09:53;;;;;;;160.15;36.15;;;10.10;99.90;;;;;;4936669;29;20881;-93
2021/12/14 20:12:38;;;;;;;127.60;32.60;;;10.00;99.90;;;;;;4919958;29;20404;-92
2021/12/14 20:15:39;;;;;;;131.45;35.15;;;10.20;99.90;;;;;;4919912;29;20114;-93
2021/12/14 20:18:33;;;;;;;148.48;36.15;;;9.60;99.90;;;;;;4938742;29;20067;-93
2021/12/14 20:21:23;;;;;;;127.28;34.90;;;9.30;99.90;;;;;;4923847;29;20632;-92
2021/12/14 20:24:48;;;;;;;;;;;;;;;;;;;;;
2021/12/14 20:27:27;;;;;;;126.13;32.17;;;9.20;99.90;;;;;;4930111;29;20052;-92
2021/12/14 20:30:08;;;;;;;136.70;37.50;;;9.60;99.90;;;;;;4923507;29;20050;-93
2021/12/14 20:32:48;;;;;;;121.07;34.05;;;9.60;99.90;;;;;;4925552;29;20087;-92
2021/12/14 20:35:42;;;;;;;;;;;;;;;;;;;;;
2021/12/14 20:38:25;;;;;;;110.30;31.92;;;9.60;99.90;;;;;;4943280;29;20063;-93
2021/12/14 20:41:17;;;;;;;111.65;34.28;;;10.10;99.90;;;;;;4925582;29;20138;-93
2021/12/14 20:44:59;;;;;;;;;;;;;;;;;;;;;
2021/12/14 20:47:53;;;;;;;115.63;33.88;;;9.60;99.90;;;;;;4943184;29;20150;-93
2021/12/14 20:50:47;;;;;;;92.20;29.20;;;9.10;99.90;;;;;;4931761;29;20107;-93
2021/12/14 20:54:12;;;;;;;;;;;;;;;;;;;;;
2021/12/14 20:57:25;;;;;;;;;;;;;;;;;;;;;
2021/12/14 21:00:39;;;;;;;102.47;30.60;;;9.60;99.90;;;;;;4952463;29;20068;-93
2021/12/14 21:03:26;;;;;;;129.02;32.35;;;9.70;99.90;;;;;;4949957;29;20044;-93
2021/12/14 21:06:23;;;;;;;103.38;31.15;;;9.60;99.90;;;;;;4932753;29;20048;-93
2021/12/14 21:10:12;;;;;;;;;;;;;;;;;;;;;
2021/12/14 21:12:58;;;;;;;;;;;;;;;;;;;;;
2021/12/14 21:15:39;;;;;;;113.43;33.15;;;9.60;99.90;;;;;;4940626;29;20083;-92
2021/12/14 21:18:31;;;;;;;122.93;32.72;;;9.80;99.90;;;;;;4946381;29;20063;-93
2021/12/14 21:21:11;;;;;;;115.30;34.38;;;10.10;99.90;;;;;;4931978;29;20138;-94
2021/12/14 21:23:49;;;;;;;132.73;34.42;;;9.60;99.90;;;;;;4932579;29;20062;-93
2021/12/14 21:29:31;;;;;;;106.55;32.45;;;9.60;99.90;;;;;;4931142;29;20056;-92
2021/12/14 21:35:47;;;;;;;119.60;34.67;;;9.60;99.90;;;;;;4934444;29;21013;-93
2021/12/14 21:38:32;;;;;;;116.93;34.63;;;9.40;99.90;;;;;;4933509;29;20138;-93
2021/12/14 21:41:02;;;;;;;123.25;37.10;;;9.70;99.90;;;;;;4932366;29;20745;-93
2021/12/14 21:46:19;;;;;;;117.03;37.22;;;9.20;99.90;;;;;;4947397;29;20067;-93
2021/12/14 21:48:51;;;;;;;;;;;9.70;99.90;;;;;;4947047;29;20239;-93
2021/12/14 21:51:22;;;;;;;117.05;37.58;;;9.40;99.90;;;;;;4934390;29;19922;-94
2021/12/14 21:53:56;;;;;;;121.15;38.20;;;9.60;99.90;;;;;;4934595;29;20077;-93
2021/12/14 21:56:31;;;;;;;131.45;38.70;;;9.70;99.90;;;;;;4931423;29;20056;-93
2021/12/14 21:59:00;;;;;;;126.60;37.00;;;9.90;99.90;;;;;;4928818;29;20096;-94
2021/12/14 22:01:56;;;;;;;127.75;37.70;;;10.40;99.90;;;;;;4929592;29;20060;-93
2021/12/14 22:04:32;;;;;;;;;;;;;;;;;;;;;
2021/12/14 22:07:14;;;;;;;146.85;40.00;;;10.20;99.90;;;;;;4947089;29;20056;-93
2021/12/14 22:09:44;;;;;;;148.32;40.65;;;9.80;99.90;;;;;;4932052;29;20051;-93
2021/12/14 22:12:38;;;;;;;158.52;43.40;;;10.70;99.90;;;;;;4937858;28;20051;-94
2021/12/14 22:15:25;;;;;;;165.30;44.20;;;10.00;99.90;;;;;;4938868;28;20403;-93
2021/12/14 22:17:52;;;;;;;156.05;40.80;;;9.70;99.90;;;;;;4931049;29;20055;-93
2021/12/14 22:20:27;;;;;;;137.70;40.20;;;9.70;99.90;;;;;;4930767;29;20074;-94
2021/12/14 22:23:07;;;;;;;179.27;44.83;;;9.60;99.90;;;;;;4948192;29;20055;-94
2021/12/14 22:25:38;;;;;;;168.45;42.10;;;9.80;99.90;;;;;;4931260;29;20063;-93
2021/12/14 22:28:07;;;;;;;163.40;40.63;;;9.70;99.90;;;;;;4932126;29;20106;-93
2021/12/14 22:30:38;;;;;;;175.50;46.72;;;9.70;99.90;;;;;;4948925;29;20076;-93
2021/12/14 22:33:19;;;;;;;148.93;43.13;;;10.50;99.90;;;;;;4933814;29;20044;-93
2021/12/14 22:35:53;;;;;;;164.90;43.22;;;9.70;99.90;;;;;;4932296;29;20043;-94
2021/12/14 22:38:20;;;;;;;150.27;44.10;;;9.70;99.90;;;;;;4929418;29;20106;-93
2021/12/14 22:41:11;;;;;;;144.93;40.22;;;10.60;99.90;;;;;;4929653;29;20048;-93
2021/12/14 22:46:27;;;;;;;159.52;43.80;;;9.80;99.90;;;;;;4944815;29;20059;-93
2021/12/14 22:49:01;;;;;;;147.57;41.53;;;9.80;99.90;;;;;;4930984;29;20052;-93
2021/12/14 22:51:31;;;;;;;161.73;43.83;;;9.00;99.90;;;;;;4943208;29;20111;-92
2021/12/14 22:53:57;;;;;;;153.23;41.75;;;9.80;99.90;;;;;;4927511;29;20058;-93
2021/12/14 22:56:41;;;;;;;150.45;43.28;;;9.80;99.90;;;;;;4927887;29;20102;-92
2021/12/14 22:59:07;;;;;;;144.85;43.20;;;9.70;99.90;;;;;;4926208;29;20047;-91
2021/12/14 23:01:39;;;;;;;141.18;42.40;;;10.30;99.90;;;;;;4924863;29;20055;-93
2021/12/14 23:04:28;;;;;;;141.43;40.57;;;9.90;99.90;;;;;;4944019;29;20059;-90
2021/12/14 23:07:15;;;;;;;117.88;39.15;;;9.80;99.90;;;;;;4941307;28;20299;-93
2021/12/14 23:09:49;;;;;;;118.63;38.53;;;10.00;99.90;;;;;;4927399;29;20048;-92
2021/12/14 23:12:27;;;;;;;122.50;40.70;;;9.80;99.90;;;;;;4941992;29;20130;-92
2021/12/14 23:15:32;;;;;;;105.80;35.15;;;9.50;99.90;;;;;;4928905;29;20054;-93
2021/12/14 23:18:50;;;;;;;103.30;38.10;;;9.70;99.90;;;;;;4947241;29;20056;-93
2021/12/14 23:21:14;;;;;;;;;;;9.80;99.90;;;;;;4944249;29;20098;-92
2021/12/14 23:23:48;;;;;;;103.15;34.50;;;9.80;99.90;;;;;;4926033;29;20305;-92
2021/12/14 23:26:20;;;;;;;94.78;36.22;;;10.30;99.90;;;;;;4924280;29;20047;-92
2021/12/14 23:28:47;;;;;;;109.30;35.20;;;9.00;99.90;;;;;;4928442;29;20190;-93
2021/12/14 23:31:13;;;;;;;107.55;35.63;;;9.80;99.90;;;;;;4932094;29;20047;-93
2021/12/14 23:33:45;;;;;;;;;;;9.80;99.90;;;;;;4932147;29;20142;-93
2021/12/14 23:36:18;;;;;;;97.22;36.85;;;9.80;99.90;;;;;;4930128;29;20289;-92
2021/12/14 23:38:50;;;;;;;88.90;35.05;;;10.50;99.90;;;;;;4929760;29;20103;-92
2021/12/14 23:41:26;;;;;;;98.78;34.97;;;9.60;99.90;;;;;;4943539;29;20054;-92
2021/12/14 23:43:55;;;;;;;98.70;34.85;;;10.80;99.90;;;;;;4930236;29;20075;-92
2021/12/14 23:49:12;;;;;;;102.03;36.60;;;10.30;99.90;;;;;;4942520;29;20106;-92
2021/12/14 23:51:42;;;;;;;86.82;32.78;;;10.30;99.90;;;;;;4928404;29;20047;-92
2021/12/14 23:54:33;;;;;;;;;;;;;;;;;;;;;
2021/12/14 23:57:05;;;;;;;97.85;36.28;;;10.10;99.90;;;;;;4941433;29;20055;-93
